createdAt,value
2018-01-12T00:01:11.753Z,5.70
2018-01-12T00:03:39.225Z,5.70
2018-01-12T00:06:07.474Z,5.80
2018-01-12T00:08:34.965Z,5.80
2018-01-12T00:11:03.201Z,5.80
2018-01-12T00:13:30.687Z,5.70
2018-01-12T00:15:58.928Z,5.70
2018-01-12T00:18:26.408Z,5.70
2018-01-12T00:20:53.876Z,5.70
2018-01-12T00:23:22.125Z,5.70
2018-01-12T00:25:49.595Z,5.70
2018-01-12T00:28:17.424Z,5.70
2018-01-12T00:30:44.896Z,5.60
2018-01-12T00:33:12.373Z,5.70
2018-01-12T00:35:39.857Z,5.60
2018-01-12T00:38:08.104Z,5.60
2018-01-12T00:40:35.585Z,5.60
2018-01-12T00:43:03.050Z,5.60
2018-01-12T00:45:31.489Z,5.60
2018-01-12T00:47:58.960Z,5.60
2018-01-12T00:50:26.440Z,5.60
2018-01-12T00:52:54.676Z,5.60
2018-01-12T00:55:22.148Z,5.60
2018-01-12T00:57:49.632Z,5.50
2018-01-12T01:00:17.105Z,5.50
2018-01-12T01:02:45.352Z,5.40
2018-01-12T01:05:12.821Z,5.40
2018-01-12T01:07:40.305Z,5.40
2018-01-12T01:10:08.553Z,5.40
2018-01-12T01:12:36.037Z,5.40
2018-01-12T01:15:04.276Z,5.30
2018-01-12T01:17:31.761Z,5.30
2018-01-12T01:19:59.997Z,5.20
2018-01-12T01:22:27.485Z,5.20
2018-01-12T01:24:54.961Z,5.30
2018-01-12T01:27:23.201Z,5.20
2018-01-12T01:29:50.685Z,5.20
2018-01-12T01:32:18.921Z,5.30
2018-01-12T01:34:46.397Z,5.30
2018-01-12T01:37:13.862Z,5.30
2018-01-12T01:39:41.345Z,5.30
2018-01-12T01:42:09.589Z,5.20
2018-01-12T01:44:37.076Z,5.20
2018-01-12T01:47:05.312Z,5.20
2018-01-12T01:49:32.808Z,5.20
2018-01-12T01:52:01.052Z,5.20
2018-01-12T01:54:28.522Z,5.20
2018-01-12T01:56:56.001Z,5.10
2018-01-12T01:59:24.242Z,5.10
2018-01-12T02:01:51.717Z,5.10
2018-01-12T02:04:19.192Z,5.20
2018-01-12T02:06:47.432Z,5.10
2018-01-12T02:09:14.908Z,5.10
2018-01-12T02:11:42.381Z,5.10
2018-01-12T02:14:10.632Z,5.00
2018-01-12T02:16:38.113Z,4.90
2018-01-12T02:19:05.829Z,4.90
2018-01-12T02:21:33.288Z,4.90
2018-01-12T02:24:00.779Z,4.90
2018-01-12T02:26:28.260Z,4.80
2018-01-12T02:28:56.555Z,4.80
2018-01-12T02:31:24.781Z,4.80
2018-01-12T02:33:52.268Z,4.80
2018-01-12T02:36:19.762Z,4.80
2018-01-12T02:38:47.244Z,4.80
2018-01-12T02:41:14.730Z,4.80
2018-01-12T02:43:42.216Z,4.70
2018-01-12T02:46:10.469Z,4.80
2018-01-12T02:48:37.936Z,4.80
2018-01-12T02:51:05.432Z,4.80
2018-01-12T02:53:32.909Z,4.80
2018-01-12T02:56:00.393Z,4.80
2018-01-12T02:58:27.872Z,4.80
2018-01-12T03:00:55.376Z,4.70
2018-01-12T03:03:22.847Z,4.70
2018-01-12T03:05:50.321Z,4.70
2018-01-12T03:08:17.800Z,4.60
2018-01-12T03:10:45.280Z,4.60
2018-01-12T03:13:13.521Z,4.60
2018-01-12T03:15:41.009Z,4.60
2018-01-12T03:18:09.265Z,4.50
2018-01-12T03:20:36.741Z,4.50
2018-01-12T03:23:04.985Z,4.50
2018-01-12T03:25:32.461Z,4.50
2018-01-12T03:27:59.944Z,4.50
2018-01-12T03:30:28.200Z,4.50
2018-01-12T03:32:55.695Z,4.50
2018-01-12T03:35:23.179Z,4.50
2018-01-12T03:37:50.679Z,4.40
2018-01-12T03:40:18.495Z,4.40
2018-01-12T03:42:45.973Z,4.40
2018-01-12T03:45:13.714Z,4.40
2018-01-12T03:47:42.190Z,4.30
2018-01-12T03:50:09.682Z,4.30
2018-01-12T03:52:37.161Z,4.30
2018-01-12T03:55:04.659Z,4.20
2018-01-12T03:57:32.165Z,4.20
2018-01-12T03:59:59.640Z,4.20
2018-01-12T04:02:27.120Z,4.20
2018-01-12T04:04:55.378Z,4.10
2018-01-12T04:07:23.090Z,4.10
2018-01-12T04:09:50.560Z,4.10
2018-01-12T04:12:18.046Z,4.10
2018-01-12T04:14:45.522Z,4.20
2018-01-12T04:17:13.769Z,4.10
2018-01-12T04:19:41.246Z,4.10
2018-01-12T04:22:08.729Z,4.10
2018-01-12T04:24:36.969Z,4.10
2018-01-12T04:27:04.453Z,4.10
2018-01-12T04:29:32.693Z,4.10
2018-01-12T04:32:00.433Z,4.10
2018-01-12T04:34:27.917Z,4.10
2018-01-12T04:36:55.390Z,4.10
2018-01-12T04:39:22.887Z,4.10
2018-01-12T04:41:50.357Z,4.10
2018-01-12T04:44:17.841Z,4.10
2018-01-12T04:46:46.082Z,4.20
2018-01-12T04:49:13.561Z,4.20
2018-01-12T04:51:41.051Z,4.20
2018-01-12T04:54:08.530Z,4.20
2018-01-12T04:56:36.010Z,4.50
2018-01-12T04:59:04.254Z,4.60
2018-01-12T05:01:31.738Z,4.60
2018-01-12T05:03:59.974Z,4.60
2018-01-12T05:06:27.466Z,4.60
2018-01-12T05:08:55.702Z,4.60
2018-01-12T05:11:23.189Z,4.60
2018-01-12T05:13:50.669Z,4.60
2018-01-12T05:16:18.925Z,4.30
2018-01-12T05:18:46.463Z,4.30
2018-01-12T05:21:13.894Z,4.30
2018-01-12T05:23:41.382Z,4.30
2018-01-12T05:26:08.858Z,4.20
2018-01-12T05:28:36.345Z,4.20
2018-01-12T05:31:03.821Z,4.20
2018-01-12T05:33:31.301Z,4.10
2018-01-12T05:35:58.778Z,4.10
2018-01-12T05:38:26.255Z,4.10
2018-01-12T05:40:53.724Z,4.10
2018-01-12T05:43:21.973Z,4.10
2018-01-12T05:45:49.453Z,4.00
2018-01-12T05:48:17.692Z,4.10
2018-01-12T05:50:45.172Z,4.00
2018-01-12T05:53:12.648Z,4.10
2018-01-12T05:55:40.897Z,4.00
2018-01-12T05:58:08.383Z,4.00
2018-01-12T06:00:36.905Z,3.90
2018-01-12T06:03:16.039Z,3.90
2018-01-12T06:05:55.386Z,3.80
2018-01-12T06:08:23.137Z,3.80
2018-01-12T06:10:50.639Z,3.80
2018-01-12T06:13:18.116Z,3.70
2018-01-12T06:15:46.361Z,3.80
2018-01-12T06:18:13.836Z,3.80
2018-01-12T06:20:41.311Z,3.80
2018-01-12T06:23:09.560Z,3.70
2018-01-12T06:25:37.042Z,3.70
2018-01-12T06:28:05.296Z,3.70
2018-01-12T06:30:32.769Z,3.70
2018-01-12T06:33:00.251Z,3.70
2018-01-12T06:35:28.503Z,3.80
2018-01-12T06:37:55.989Z,3.70
2018-01-12T06:40:23.462Z,3.70
2018-01-12T06:42:50.963Z,3.80
2018-01-12T06:45:18.444Z,3.80
2018-01-12T06:47:46.681Z,3.80
2018-01-12T06:50:14.156Z,3.80
2018-01-12T06:52:41.889Z,3.70
2018-01-12T06:55:09.369Z,3.80
2018-01-12T06:57:36.845Z,3.70
2018-01-12T07:00:04.337Z,3.70
2018-01-12T07:02:31.823Z,3.80
2018-01-12T07:04:59.309Z,3.80
2018-01-12T07:07:26.784Z,3.70
2018-01-12T07:09:54.273Z,3.70
2018-01-12T07:12:21.765Z,3.70
2018-01-12T07:14:49.246Z,3.70
2018-01-12T07:17:16.733Z,3.70
2018-01-12T07:19:44.988Z,3.80
2018-01-12T07:22:22.761Z,3.80
2018-01-12T07:24:50.232Z,3.80
2018-01-12T07:27:17.735Z,3.80
2018-01-12T07:32:46.853Z,3.70
2018-01-12T07:35:15.092Z,3.80
2018-01-12T07:37:43.165Z,3.80
2018-01-12T07:40:10.636Z,3.80
2018-01-12T07:42:38.125Z,3.80
2018-01-12T07:45:05.598Z,3.80
2018-01-12T07:47:33.081Z,3.90
2018-01-12T07:50:00.552Z,3.80
2018-01-12T07:52:28.029Z,3.80
2018-01-12T07:54:55.508Z,3.80
2018-01-12T07:57:23.745Z,3.80
2018-01-12T07:59:51.243Z,3.80
2018-01-12T08:02:24.437Z,3.80
2018-01-12T08:04:52.682Z,3.80
2018-01-12T08:07:20.152Z,3.80
2018-01-12T08:09:47.632Z,3.80
2018-01-12T08:12:15.878Z,3.80
2018-01-12T08:14:43.373Z,3.80
2018-01-12T08:17:10.859Z,3.70
2018-01-12T08:19:38.378Z,3.70
2018-01-12T08:22:06.616Z,3.70
2018-01-12T08:24:34.102Z,3.70
2018-01-12T08:27:02.353Z,3.80
2018-01-12T08:29:29.848Z,3.80
2018-01-12T08:31:57.346Z,3.80
2018-01-12T08:34:24.853Z,3.90
2018-01-12T08:36:52.350Z,3.90
2018-01-12T08:39:19.825Z,4.00
2018-01-12T08:41:47.300Z,3.90
2018-01-12T08:44:14.790Z,3.90
2018-01-12T08:46:43.042Z,4.00
2018-01-12T08:49:10.508Z,4.00
2018-01-12T08:51:38.075Z,4.00
2018-01-12T08:54:05.565Z,4.00
2018-01-12T08:56:33.044Z,3.90
2018-01-12T08:59:00.537Z,3.90
2018-01-12T09:01:28.017Z,4.00
2018-01-12T09:03:55.493Z,4.00
2018-01-12T09:06:23.732Z,4.10
2018-01-12T09:08:51.218Z,4.10
2018-01-12T09:11:19.457Z,4.00
2018-01-12T09:13:53.862Z,4.00
2018-01-12T09:16:27.406Z,4.00
2018-01-12T09:19:07.512Z,4.00
2018-01-12T09:21:36.823Z,4.00
2018-01-12T09:24:16.088Z,4.10
2018-01-12T09:26:43.560Z,4.00
2018-01-12T09:29:11.812Z,4.10
2018-01-12T09:31:43.248Z,4.10
2018-01-12T09:34:22.724Z,4.20
2018-01-12T09:36:50.975Z,4.30
2018-01-12T09:39:30.450Z,4.30
2018-01-12T09:41:58.759Z,4.30
2018-01-12T09:44:26.308Z,4.30
2018-01-12T09:46:53.857Z,4.30
2018-01-12T09:49:23.061Z,4.30
2018-01-12T09:51:50.637Z,4.30
2018-01-12T09:54:18.176Z,4.40
2018-01-12T09:56:45.696Z,4.30
2018-01-12T09:59:13.218Z,4.30
2018-01-12T10:01:40.714Z,4.40
2018-01-12T10:04:08.223Z,4.40
2018-01-12T10:06:35.777Z,4.30
2018-01-12T10:09:03.296Z,4.40
2018-01-12T10:11:30.814Z,4.40
2018-01-12T10:13:58.338Z,4.40
2018-01-12T10:16:26.656Z,4.40
2018-01-12T10:18:54.421Z,4.40
2018-01-12T10:21:33.930Z,4.40
2018-01-12T10:24:02.285Z,4.30
2018-01-12T10:26:29.802Z,4.30
2018-01-12T10:29:07.004Z,4.40
2018-01-12T10:31:46.423Z,4.40
2018-01-12T10:34:19.755Z,4.50
2018-01-12T10:36:58.169Z,4.50
2018-01-12T10:39:25.672Z,4.50
2018-01-12T10:42:02.095Z,4.40
2018-01-12T10:44:29.616Z,4.50
2018-01-12T10:47:15.917Z,4.40
2018-01-12T10:49:55.302Z,4.40
2018-01-12T10:52:31.783Z,4.60
2018-01-12T10:55:00.310Z,4.50
2018-01-12T10:57:27.833Z,4.50
2018-01-12T10:59:56.159Z,4.70
2018-01-12T11:02:24.469Z,4.60
2018-01-12T11:04:51.965Z,4.60
2018-01-12T11:07:19.469Z,4.70
2018-01-12T11:09:46.977Z,4.70
2018-01-12T11:12:14.484Z,4.60
2018-01-12T11:14:42.013Z,4.60
2018-01-12T11:17:09.525Z,4.60
2018-01-12T11:19:37.037Z,4.60
2018-01-12T11:22:04.571Z,4.50
2018-01-12T11:24:32.074Z,4.60
2018-01-12T11:26:59.633Z,4.60
2018-01-12T11:29:27.144Z,4.60
2018-01-12T11:31:55.429Z,4.40
2018-01-12T11:34:23.226Z,4.40
2018-01-12T11:36:51.502Z,4.50
2018-01-12T11:39:19.018Z,4.50
2018-01-12T11:41:47.277Z,4.60
2018-01-12T11:44:14.757Z,4.60
2018-01-12T11:46:43.001Z,4.60
2018-01-12T11:49:10.481Z,4.60
2018-01-12T11:51:38.721Z,4.60
2018-01-12T11:54:06.203Z,4.70
2018-01-12T11:56:33.688Z,4.70
2018-01-12T11:59:01.987Z,4.80
2018-01-12T12:01:29.471Z,4.70
2018-01-12T12:03:56.949Z,4.80
2018-01-12T12:06:25.201Z,4.80
2018-01-12T12:12:05.731Z,4.80
2018-01-12T12:14:33.972Z,4.80
2018-01-12T12:17:01.453Z,4.80
2018-01-12T12:19:28.929Z,4.80
2018-01-12T12:21:57.555Z,4.70
2018-01-12T12:24:25.025Z,4.70
2018-01-12T12:26:52.523Z,4.70
2018-01-12T12:29:19.996Z,4.80
2018-01-12T12:31:48.245Z,4.80
2018-01-12T12:34:15.812Z,4.80
2018-01-12T12:36:43.293Z,4.90
2018-01-12T12:39:11.547Z,4.80
2018-01-12T12:41:39.025Z,4.80
2018-01-12T12:44:07.315Z,4.80
2018-01-12T12:46:34.798Z,4.80
2018-01-12T12:49:02.272Z,4.90
2018-01-12T12:51:29.795Z,4.90
2018-01-12T12:53:57.272Z,4.80
2018-01-12T12:56:24.764Z,4.80
2018-01-12T12:58:52.240Z,4.80
2018-01-12T13:01:19.709Z,4.80
2018-01-12T13:03:47.971Z,4.80
2018-01-12T13:06:15.436Z,4.80
2018-01-12T13:08:43.684Z,4.90
2018-01-12T13:11:11.160Z,4.90
2018-01-12T13:13:38.636Z,4.80
2018-01-12T13:16:06.877Z,4.90
2018-01-12T13:18:34.378Z,4.90
2018-01-12T13:21:01.875Z,4.90
2018-01-12T13:23:29.354Z,4.90
2018-01-12T13:25:56.837Z,4.90
2018-01-12T13:28:24.323Z,4.90
2018-01-12T13:30:51.823Z,4.90
2018-01-12T13:33:19.302Z,4.90
2018-01-12T13:35:46.793Z,4.90
2018-01-12T13:38:15.051Z,4.90
2018-01-12T13:40:43.305Z,4.90
2018-01-12T13:43:10.769Z,4.90
2018-01-12T13:45:38.494Z,5.00
2018-01-12T13:48:05.990Z,5.00
2018-01-12T13:50:33.465Z,5.00
2018-01-12T13:53:01.727Z,5.00
2018-01-12T13:55:29.196Z,5.00
2018-01-12T13:57:56.676Z,5.00
2018-01-12T14:00:24.917Z,4.90
2018-01-12T14:02:52.398Z,4.80
2018-01-12T14:05:20.659Z,4.80
2018-01-12T14:07:48.145Z,4.80
2018-01-12T14:10:16.389Z,4.80
2018-01-12T14:12:43.864Z,4.80
2018-01-12T14:15:11.362Z,4.90
2018-01-12T14:17:38.836Z,4.80
2018-01-12T14:20:06.313Z,4.80
2018-01-12T14:22:33.803Z,4.90
2018-01-12T14:25:02.057Z,4.80
2018-01-12T14:27:29.537Z,4.80
2018-01-12T14:29:57.785Z,4.90
2018-01-12T14:32:25.261Z,4.90
2018-01-12T14:34:52.737Z,4.80
2018-01-12T14:37:20.985Z,4.90
2018-01-12T14:39:48.460Z,4.90
2018-01-12T14:42:15.957Z,4.90
2018-01-12T14:44:43.435Z,5.00
2018-01-12T14:47:10.934Z,5.00
2018-01-12T14:49:38.419Z,5.00
2018-01-12T14:52:05.917Z,5.10
2018-01-12T14:54:33.393Z,5.10
2018-01-12T14:57:00.874Z,5.10
2018-01-12T14:59:29.120Z,5.00
2018-01-12T15:01:56.604Z,5.00
2018-01-12T15:04:24.897Z,5.00
2018-01-12T15:06:53.136Z,5.00
2018-01-12T15:09:20.621Z,5.00
2018-01-12T15:11:48.862Z,5.00
2018-01-12T15:14:16.605Z,5.00
2018-01-12T15:16:44.092Z,5.00
2018-01-12T15:19:11.572Z,5.00
2018-01-12T15:21:39.062Z,5.00
2018-01-12T15:24:06.536Z,5.00
2018-01-12T15:26:34.029Z,5.00
2018-01-12T15:29:01.505Z,5.00
2018-01-12T15:31:28.990Z,5.00
2018-01-12T15:33:56.465Z,5.00
2018-01-12T15:36:23.947Z,4.90
2018-01-12T15:38:51.427Z,4.90
2018-01-12T15:41:18.896Z,4.80
2018-01-12T15:43:46.380Z,4.90
2018-01-12T15:46:13.854Z,4.90
2018-01-12T15:48:41.632Z,4.80
2018-01-12T15:51:09.114Z,4.70
2018-01-12T15:53:36.609Z,4.70
2018-01-12T15:56:04.848Z,4.70
2018-01-12T15:58:32.324Z,4.70
2018-01-12T16:00:59.804Z,4.70
2018-01-12T16:03:28.046Z,4.70
2018-01-12T16:05:55.536Z,4.70
2018-01-12T16:08:23.772Z,4.70
2018-01-12T16:10:51.260Z,4.70
2018-01-12T16:13:18.803Z,4.70
2018-01-12T16:15:46.253Z,4.70
2018-01-12T16:18:13.725Z,4.70
2018-01-12T16:20:41.248Z,4.60
2018-01-12T16:23:08.723Z,4.70
2018-01-12T16:25:36.188Z,4.70
2018-01-12T16:28:03.682Z,4.60
2018-01-12T16:30:31.917Z,4.60
2018-01-12T16:32:59.664Z,4.60
2018-01-12T16:35:27.132Z,4.60
2018-01-12T16:37:54.662Z,4.60
2018-01-12T16:40:22.136Z,4.60
2018-01-12T16:42:49.609Z,4.60
2018-01-12T16:45:17.094Z,4.50
2018-01-12T16:47:44.564Z,4.50
2018-01-12T16:50:12.049Z,4.50
2018-01-12T16:52:39.517Z,4.50
2018-01-12T16:55:06.997Z,4.50
2018-01-12T16:57:34.464Z,4.50
2018-01-12T17:00:01.953Z,4.50
2018-01-12T17:02:29.425Z,4.50
2018-01-12T17:04:57.672Z,4.40
2018-01-12T17:07:25.403Z,4.40
2018-01-12T17:09:52.918Z,4.50
2018-01-12T17:12:21.157Z,4.50
2018-01-12T17:14:48.646Z,4.50
2018-01-12T17:17:16.120Z,4.50
2018-01-12T17:19:44.361Z,4.50
2018-01-12T17:22:11.845Z,4.50
2018-01-12T17:24:40.091Z,4.50
2018-01-12T17:27:07.584Z,4.50
2018-01-12T17:29:35.829Z,4.40
2018-01-12T17:32:03.300Z,4.40
2018-01-12T17:34:30.781Z,4.40
2018-01-12T17:36:59.020Z,4.40
2018-01-12T17:45:14.301Z,4.40
2018-01-12T17:47:41.789Z,4.40
2018-01-12T17:50:09.264Z,4.40
2018-01-12T17:52:36.989Z,4.40
2018-01-12T17:55:04.487Z,4.40
2018-01-12T17:57:31.957Z,4.40
2018-01-12T17:59:59.455Z,4.40
2018-01-12T18:02:26.947Z,4.40
2018-01-12T18:04:54.429Z,4.40
2018-01-12T18:07:21.909Z,4.40
2018-01-12T18:09:50.158Z,4.40
2018-01-12T18:12:17.629Z,4.40
2018-01-12T18:14:45.886Z,4.40
2018-01-12T18:17:13.371Z,4.40
2018-01-12T18:19:41.614Z,4.40
2018-01-12T18:22:09.093Z,4.30
2018-01-12T18:24:36.561Z,4.30
2018-01-12T18:27:04.821Z,4.30
2018-01-12T18:29:32.306Z,4.30
2018-01-12T18:32:00.555Z,4.30
2018-01-12T18:34:28.025Z,4.30
2018-01-12T18:36:55.513Z,4.30
2018-01-12T18:39:23.015Z,4.30
2018-01-12T18:41:50.515Z,4.30
2018-01-12T18:44:18.951Z,4.40
2018-01-12T18:46:46.448Z,4.40
2018-01-12T18:49:14.776Z,4.40
2018-01-12T18:51:42.244Z,4.40
2018-01-12T18:54:09.730Z,4.40
2018-01-12T18:56:37.201Z,4.40
2018-01-12T18:59:05.449Z,4.30
2018-01-12T19:01:32.920Z,4.30
2018-01-12T19:04:00.419Z,4.40
2018-01-12T19:06:27.893Z,4.40
2018-01-12T19:08:55.758Z,4.40
2018-01-12T19:11:23.507Z,4.40
2018-01-12T19:13:51.033Z,4.40
2018-01-12T19:16:18.508Z,4.40
2018-01-12T19:18:46.760Z,4.50
2018-01-12T19:21:14.237Z,4.40
2018-01-12T19:23:42.487Z,4.40
2018-01-12T19:26:09.969Z,4.40
2018-01-12T19:28:38.213Z,4.50
2018-01-12T19:31:05.743Z,4.40
2018-01-12T19:33:33.227Z,4.40
2018-01-12T19:36:00.717Z,4.50
2018-01-12T19:38:28.186Z,4.50
2018-01-12T19:40:55.688Z,4.50
2018-01-12T19:43:23.198Z,4.50
2018-01-12T19:45:51.444Z,4.50
2018-01-12T19:48:18.917Z,4.40
2018-01-12T19:50:46.420Z,4.40
2018-01-12T19:53:13.897Z,4.40
2018-01-12T19:55:41.372Z,4.40
2018-01-12T19:58:08.854Z,4.40
2018-01-12T20:00:36.327Z,4.40
2018-01-12T20:03:04.574Z,4.40
2018-01-12T20:05:32.045Z,4.40
2018-01-12T20:07:59.562Z,4.50
2018-01-12T20:10:27.025Z,4.50
2018-01-12T20:12:54.512Z,4.50
2018-01-12T20:15:21.999Z,4.50
2018-01-12T20:17:50.259Z,4.60
2018-01-12T20:20:17.733Z,4.50
2018-01-12T20:22:45.981Z,4.60
2018-01-12T20:25:13.513Z,4.60
2018-01-12T20:27:41.000Z,4.60
2018-01-12T20:30:08.491Z,4.70
2018-01-12T20:32:36.773Z,4.70
2018-01-12T20:35:05.031Z,4.70
2018-01-12T20:37:32.504Z,4.70
2018-01-12T20:40:00.744Z,4.70
2018-01-12T20:42:28.217Z,4.70
2018-01-12T20:44:55.701Z,4.70
2018-01-12T20:47:23.941Z,4.80
2018-01-12T20:49:51.438Z,4.80
2018-01-12T20:52:19.689Z,4.80
2018-01-12T20:54:47.169Z,4.80
2018-01-12T20:57:15.409Z,4.90
2018-01-12T20:59:42.892Z,4.90
2018-01-12T21:02:11.137Z,4.80
2018-01-12T21:04:38.676Z,4.80
2018-01-12T21:07:06.150Z,4.70
2018-01-12T21:09:33.626Z,4.70
2018-01-12T21:12:01.121Z,4.70
2018-01-12T21:14:28.594Z,4.70
2018-01-12T21:16:56.394Z,4.80
2018-01-12T21:19:23.869Z,4.80
2018-01-12T21:21:51.354Z,4.70
2018-01-12T21:24:19.636Z,4.80
2018-01-12T21:26:47.878Z,4.70
2018-01-12T21:29:15.357Z,4.70
2018-01-12T21:31:43.648Z,4.60
2018-01-12T21:34:12.108Z,4.60
2018-01-12T21:36:39.624Z,4.60
2018-01-12T21:39:07.166Z,4.50
2018-01-12T21:41:34.636Z,4.40
2018-01-12T21:44:02.162Z,4.50
2018-01-12T21:46:29.657Z,4.50
2018-01-12T21:48:57.416Z,4.50
2018-01-12T21:51:25.186Z,4.50
2018-01-12T21:53:52.657Z,4.50
2018-01-12T21:56:20.137Z,4.60
2018-01-12T21:58:47.613Z,4.60
2018-01-12T22:01:15.093Z,4.60
2018-01-12T22:03:42.611Z,4.50
2018-01-12T22:06:10.093Z,4.60
2018-01-12T22:08:38.397Z,4.70
2018-01-12T22:11:05.921Z,4.70
2018-01-12T22:13:33.403Z,4.50
2018-01-12T22:16:01.686Z,4.40
2018-01-12T22:18:29.197Z,4.40
2018-01-12T22:20:56.669Z,4.40
2018-01-12T22:23:24.149Z,4.40
2018-01-12T22:25:52.386Z,4.40
2018-01-12T22:28:19.861Z,4.40
2018-01-12T22:30:47.343Z,4.40
2018-01-12T22:33:15.593Z,4.40
2018-01-12T22:35:43.107Z,4.40
2018-01-12T22:38:10.568Z,4.40
2018-01-12T22:40:38.068Z,4.40
2018-01-12T22:43:05.541Z,4.40
2018-01-12T22:45:33.797Z,4.40
2018-01-12T22:48:01.272Z,4.40
2018-01-12T22:50:28.797Z,4.40
2018-01-12T22:52:56.309Z,4.30
2018-01-12T22:55:24.588Z,4.30
2018-01-12T22:57:52.820Z,4.30
2018-01-12T23:00:20.566Z,4.30
2018-01-12T23:02:48.051Z,4.20
2018-01-12T23:05:15.524Z,4.30
2018-01-12T23:07:43.589Z,4.30
2018-01-12T23:10:11.112Z,4.20
2018-01-12T23:12:38.596Z,4.20
2018-01-12T23:15:06.069Z,4.20
2018-01-12T23:17:33.609Z,4.40
2018-01-12T23:20:01.127Z,4.30
2018-01-12T23:22:28.632Z,4.30
2018-01-12T23:24:56.092Z,4.30
2018-01-12T23:27:23.588Z,4.30
2018-01-12T23:29:51.824Z,4.10
2018-01-12T23:32:19.297Z,4.20
2018-01-12T23:34:46.779Z,4.10
2018-01-12T23:37:14.323Z,4.10
2018-01-12T23:39:41.800Z,4.20
2018-01-12T23:42:10.056Z,4.10
2018-01-12T23:44:37.570Z,4.10
2018-01-12T23:47:05.041Z,4.20
2018-01-12T23:49:33.289Z,4.10
2018-01-12T23:52:00.756Z,4.10
2018-01-12T23:54:28.287Z,4.10
2018-01-12T23:56:56.577Z,4.10
2018-01-12T23:59:24.053Z,4.10
